Boykin, South Carolina
Current Conditions -  °F | °C
As of 6:58 PM on Saturday 25 Oct 2014 (Local Time) from KSSC Reporting Station
Clear Clear  
Wind Chill: 65°   Ceiling: Unl
Heat Index: 65°   Visibility: 10mi
Dew Point: 46°   Wind: 3mph
Humidity: 49%   Direction: 270°W
Pressure: 29.94"   Gusts: NA
Location:  34.1106°N, 80.4967°W
Report Text: KSSC 252258Z AUTO 27003KT 10SM CLR 19/08 A2994 RMK AO2 SLP140 T01850075 $
Loading
Personal Weather Stations






























Interactive Weather Map New forecast layout! Learn more

10-Day Weather Forecast

Advertisements
Track Severe Weather on mobile